Terminal Aerodrome Forecast
Issued by NWS

Home | Current Version | Previous Version | Text Only | Print | Product List | Glossary On
Versions: 1 2 3 4 5 6 7 8 9 10 11 12 13 14 15 16 17 18 19 20 21 22 23 24 25 26 27 28 29 30 31 32 33 34 35 36 37 38 39 40 41 42 43 44 45 46 47 48 49 50
828
FTUS41 KCTP 130435 AAC
TAFJST
TAF AMD
KJST 130435Z 1305/1324 28012KT 1/4SM +SN BKN009 OVC015
     FM130600 28012G23KT 2SM -SN BR OVC008
      TEMPO 1306/1307 28020G32KT 1/4SM +SN SQ BLSN VV007
     FM130900 30016G26KT 3SM -SHSN BR OVC015
     FM132100 30015KT P6SM VCSH OVC015=

USA.gov is the U.S. government's official web portal to all federal, state and local government web resources and services.